sensor_id;sensor_type;location;lat;lon;timestamp;P1;durP1;ratioP1;P2;durP2;ratioP2
9661;SDS011;24982;52.344;12.990;2022-08-03T00:00:34;3.42;;;2.92;;
9661;SDS011;24982;52.344;12.990;2022-08-03T00:03:36;3.00;;;2.70;;
9661;SDS011;24982;52.344;12.990;2022-08-03T00:06:38;2.97;;;2.70;;
9661;SDS011;24982;52.344;12.990;2022-08-03T00:09:40;2.92;;;2.72;;
9661;SDS011;24982;52.344;12.990;2022-08-03T00:12:43;3.22;;;2.58;;
9661;SDS011;24982;52.344;12.990;2022-08-03T00:15:45;3.53;;;2.63;;
9661;SDS011;24982;52.344;12.990;2022-08-03T00:18:47;3.72;;;2.67;;
9661;SDS011;24982;52.344;12.990;2022-08-03T00:21:49;7.15;;;2.40;;
9661;SDS011;24982;52.344;12.990;2022-08-03T00:24:51;2.70;;;2.60;;
9661;SDS011;24982;52.344;12.990;2022-08-03T00:27:55;4.90;;;2.90;;
9661;SDS011;24982;52.344;12.990;2022-08-03T00:30:57;3.05;;;2.75;;
9661;SDS011;24982;52.344;12.990;2022-08-03T00:33:59;2.92;;;2.60;;
9661;SDS011;24982;52.344;12.990;2022-08-03T00:37:01;5.43;;;2.83;;
9661;SDS011;24982;52.344;12.990;2022-08-03T00:40:03;3.92;;;2.47;;
9661;SDS011;24982;52.344;12.990;2022-08-03T00:43:07;3.55;;;2.42;;
9661;SDS011;24982;52.344;12.990;2022-08-03T00:46:09;5.05;;;2.65;;
9661;SDS011;24982;52.344;12.990;2022-08-03T00:49:11;3.35;;;2.50;;
9661;SDS011;24982;52.344;12.990;2022-08-03T00:52:13;3.30;;;2.55;;
9661;SDS011;24982;52.344;12.990;2022-08-03T00:55:16;3.70;;;2.75;;
9661;SDS011;24982;52.344;12.990;2022-08-03T00:58:20;4.18;;;2.75;;
9661;SDS011;24982;52.344;12.990;2022-08-03T01:01:23;3.33;;;2.50;;
9661;SDS011;24982;52.344;12.990;2022-08-03T01:04:25;2.83;;;2.63;;
9661;SDS011;24982;52.344;12.990;2022-08-03T01:07:31;2.70;;;2.28;;
9661;SDS011;24982;52.344;12.990;2022-08-03T01:10:48;3.08;;;2.58;;
9661;SDS011;24982;52.344;12.990;2022-08-03T01:14:03;4.00;;;2.20;;
9661;SDS011;24982;52.344;12.990;2022-08-03T01:17:15;2.88;;;2.60;;
9661;SDS011;24982;52.344;12.990;2022-08-03T01:20:23;2.70;;;2.50;;
9661;SDS011;24982;52.344;12.990;2022-08-03T01:23:34;3.97;;;2.70;;
9661;SDS011;24982;52.344;12.990;2022-08-03T01:26:48;5.32;;;2.42;;
9661;SDS011;24982;52.344;12.990;2022-08-03T01:30:03;2.95;;;2.58;;
9661;SDS011;24982;52.344;12.990;2022-08-03T01:33:09;2.80;;;2.25;;
9661;SDS011;24982;52.344;12.990;2022-08-03T01:36:16;3.30;;;2.50;;
9661;SDS011;24982;52.344;12.990;2022-08-03T01:39:23;4.38;;;2.70;;
9661;SDS011;24982;52.344;12.990;2022-08-03T01:42:27;2.75;;;2.30;;
9661;SDS011;24982;52.344;12.990;2022-08-03T01:45:32;4.43;;;2.67;;
9661;SDS011;24982;52.344;12.990;2022-08-03T01:48:37;2.70;;;2.17;;
9661;SDS011;24982;52.344;12.990;2022-08-03T01:51:42;4.60;;;2.63;;
9661;SDS011;24982;52.344;12.990;2022-08-03T01:54:48;2.78;;;2.20;;
9661;SDS011;24982;52.344;12.990;2022-08-03T01:57:51;3.13;;;2.38;;
9661;SDS011;24982;52.344;12.990;2022-08-03T02:00:57;2.25;;;2.15;;
9661;SDS011;24982;52.344;12.990;2022-08-03T02:04:00;2.25;;;2.15;;
9661;SDS011;24982;52.344;12.990;2022-08-03T02:07:04;3.42;;;2.55;;
9661;SDS011;24982;52.344;12.990;2022-08-03T02:10:08;2.50;;;2.30;;
9661;SDS011;24982;52.344;12.990;2022-08-03T02:13:13;2.50;;;2.30;;
9661;SDS011;24982;52.344;12.990;2022-08-03T02:16:18;3.40;;;2.58;;
9661;SDS011;24982;52.344;12.990;2022-08-03T02:19:22;5.22;;;2.53;;
9661;SDS011;24982;52.344;12.990;2022-08-03T02:22:27;2.67;;;2.33;;
9661;SDS011;24982;52.344;12.990;2022-08-03T02:25:30;2.42;;;2.10;;
9661;SDS011;24982;52.344;12.990;2022-08-03T02:28:34;4.22;;;2.08;;
9661;SDS011;24982;52.344;12.990;2022-08-03T02:31:41;2.83;;;2.30;;
9661;SDS011;24982;52.344;12.990;2022-08-03T02:34:46;2.28;;;2.17;;
9661;SDS011;24982;52.344;12.990;2022-08-03T02:37:52;2.85;;;2.47;;
9661;SDS011;24982;52.344;12.990;2022-08-03T02:40:58;2.80;;;2.35;;
9661;SDS011;24982;52.344;12.990;2022-08-03T02:44:02;3.15;;;2.20;;
9661;SDS011;24982;52.344;12.990;2022-08-03T02:47:09;3.95;;;2.05;;
9661;SDS011;24982;52.344;12.990;2022-08-03T02:50:15;5.07;;;2.45;;
9661;SDS011;24982;52.344;12.990;2022-08-03T02:53:19;2.10;;;2.00;;
9661;SDS011;24982;52.344;12.990;2022-08-03T02:56:22;2.78;;;2.10;;
9661;SDS011;24982;52.344;12.990;2022-08-03T02:59:25;2.80;;;2.47;;
9661;SDS011;24982;52.344;12.990;2022-08-03T03:02:31;2.38;;;2.15;;
9661;SDS011;24982;52.344;12.990;2022-08-03T03:05:34;3.40;;;2.05;;
9661;SDS011;24982;52.344;12.990;2022-08-03T03:08:36;2.40;;;2.20;;
9661;SDS011;24982;52.344;12.990;2022-08-03T03:11:39;4.03;;;2.38;;
9661;SDS011;24982;52.344;12.990;2022-08-03T03:14:42;3.30;;;2.10;;
9661;SDS011;24982;52.344;12.990;2022-08-03T03:17:45;2.45;;;2.17;;
9661;SDS011;24982;52.344;12.990;2022-08-03T03:20:48;2.83;;;2.38;;
9661;SDS011;24982;52.344;12.990;2022-08-03T03:23:52;2.10;;;2.00;;
9661;SDS011;24982;52.344;12.990;2022-08-03T03:26:55;3.20;;;2.00;;
9661;SDS011;24982;52.344;12.990;2022-08-03T03:29:57;3.47;;;2.05;;
9661;SDS011;24982;52.344;12.990;2022-08-03T03:33:01;2.85;;;2.20;;
9661;SDS011;24982;52.344;12.990;2022-08-03T03:36:04;2.45;;;2.20;;
9661;SDS011;24982;52.344;12.990;2022-08-03T03:39:07;3.58;;;2.22;;
9661;SDS011;24982;52.344;12.990;2022-08-03T03:42:10;4.43;;;2.33;;
9661;SDS011;24982;52.344;12.990;2022-08-03T03:45:12;2.42;;;2.22;;
9661;SDS011;24982;52.344;12.990;2022-08-03T03:48:17;2.40;;;2.20;;
9661;SDS011;24982;52.344;12.990;2022-08-03T03:51:19;3.05;;;2.55;;
9661;SDS011;24982;52.344;12.990;2022-08-03T03:54:21;4.85;;;2.38;;
9661;SDS011;24982;52.344;12.990;2022-08-03T03:57:23;2.67;;;2.47;;
9661;SDS011;24982;52.344;12.990;2022-08-03T04:00:26;2.47;;;2.28;;
9661;SDS011;24982;52.344;12.990;2022-08-03T04:03:29;2.40;;;2.20;;
9661;SDS011;24982;52.344;12.990;2022-08-03T04:06:31;3.67;;;2.55;;
9661;SDS011;24982;52.344;12.990;2022-08-03T04:09:50;4.47;;;2.47;;
9661;SDS011;24982;52.344;12.990;2022-08-03T04:13:10;2.30;;;2.10;;
9661;SDS011;24982;52.344;12.990;2022-08-03T04:16:15;2.35;;;2.13;;
9661;SDS011;24982;52.344;12.990;2022-08-03T04:19:23;2.88;;;1.90;;
9661;SDS011;24982;52.344;12.990;2022-08-03T04:22:31;3.63;;;2.20;;
9661;SDS011;24982;52.344;12.990;2022-08-03T04:25:34;3.40;;;2.00;;
9661;SDS011;24982;52.344;12.990;2022-08-03T04:28:40;2.95;;;2.00;;
9661;SDS011;24982;52.344;12.990;2022-08-03T04:31:45;2.72;;;1.98;;
9661;SDS011;24982;52.344;12.990;2022-08-03T04:34:50;2.25;;;2.10;;
9661;SDS011;24982;52.344;12.990;2022-08-03T04:37:52;3.50;;;2.10;;
9661;SDS011;24982;52.344;12.990;2022-08-03T04:40:56;3.20;;;2.10;;
9661;SDS011;24982;52.344;12.990;2022-08-03T04:43:59;4.68;;;2.25;;
9661;SDS011;24982;52.344;12.990;2022-08-03T04:47:03;3.05;;;1.77;;
9661;SDS011;24982;52.344;12.990;2022-08-03T04:50:07;2.67;;;2.15;;
9661;SDS011;24982;52.344;12.990;2022-08-03T04:53:11;1.98;;;1.83;;
9661;SDS011;24982;52.344;12.990;2022-08-03T04:56:13;2.17;;;1.95;;
9661;SDS011;24982;52.344;12.990;2022-08-03T04:59:15;3.60;;;2.05;;
9661;SDS011;24982;52.344;12.990;2022-08-03T05:02:17;2.67;;;2.10;;
9661;SDS011;24982;52.344;12.990;2022-08-03T05:05:20;2.42;;;2.15;;
9661;SDS011;24982;52.344;12.990;2022-08-03T05:08:22;2.38;;;1.88;;
9661;SDS011;24982;52.344;12.990;2022-08-03T05:11:25;2.65;;;2.10;;
9661;SDS011;24982;52.344;12.990;2022-08-03T05:14:27;3.60;;;2.10;;
9661;SDS011;24982;52.344;12.990;2022-08-03T05:17:29;3.17;;;2.00;;
9661;SDS011;24982;52.344;12.990;2022-08-03T05:20:32;3.65;;;2.00;;
9661;SDS011;24982;52.344;12.990;2022-08-03T05:23:34;2.05;;;1.92;;
9661;SDS011;24982;52.344;12.990;2022-08-03T05:26:37;2.13;;;2.03;;
9661;SDS011;24982;52.344;12.990;2022-08-03T05:29:39;5.75;;;2.20;;
9661;SDS011;24982;52.344;12.990;2022-08-03T05:32:40;2.17;;;2.00;;
9661;SDS011;24982;52.344;12.990;2022-08-03T05:35:44;2.67;;;2.20;;
9661;SDS011;24982;52.344;12.990;2022-08-03T05:38:46;2.00;;;1.90;;
9661;SDS011;24982;52.344;12.990;2022-08-03T05:41:48;3.58;;;2.08;;
9661;SDS011;24982;52.344;12.990;2022-08-03T05:44:50;4.38;;;1.88;;
9661;SDS011;24982;52.344;12.990;2022-08-03T05:47:52;2.38;;;2.17;;
9661;SDS011;24982;52.344;12.990;2022-08-03T05:50:55;2.00;;;1.90;;
9661;SDS011;24982;52.344;12.990;2022-08-03T05:53:58;2.22;;;1.90;;
9661;SDS011;24982;52.344;12.990;2022-08-03T05:56:59;2.15;;;1.80;;
9661;SDS011;24982;52.344;12.990;2022-08-03T06:00:03;2.25;;;1.90;;
9661;SDS011;24982;52.344;12.990;2022-08-03T06:03:11;3.58;;;1.90;;
9661;SDS011;24982;52.344;12.990;2022-08-03T06:06:15;5.78;;;1.80;;
9661;SDS011;24982;52.344;12.990;2022-08-03T06:09:17;2.25;;;2.10;;
9661;SDS011;24982;52.344;12.990;2022-08-03T06:12:19;2.33;;;2.20;;
9661;SDS011;24982;52.344;12.990;2022-08-03T06:15:21;2.00;;;1.90;;
9661;SDS011;24982;52.344;12.990;2022-08-03T06:18:23;2.42;;;1.90;;
9661;SDS011;24982;52.344;12.990;2022-08-03T06:21:26;2.65;;;1.95;;
9661;SDS011;24982;52.344;12.990;2022-08-03T06:24:28;2.80;;;2.33;;
9661;SDS011;24982;52.344;12.990;2022-08-03T06:27:30;2.50;;;2.00;;
9661;SDS011;24982;52.344;12.990;2022-08-03T06:30:33;2.58;;;2.10;;
9661;SDS011;24982;52.344;12.990;2022-08-03T06:33:35;4.93;;;1.80;;
9661;SDS011;24982;52.344;12.990;2022-08-03T06:36:38;3.33;;;1.80;;
9661;SDS011;24982;52.344;12.990;2022-08-03T06:39:40;2.63;;;1.90;;
9661;SDS011;24982;52.344;12.990;2022-08-03T06:42:42;1.80;;;1.70;;
9661;SDS011;24982;52.344;12.990;2022-08-03T06:45:45;2.67;;;2.00;;
9661;SDS011;24982;52.344;12.990;2022-08-03T06:48:47;1.88;;;1.77;;
9661;SDS011;24982;52.344;12.990;2022-08-03T06:51:50;2.70;;;2.20;;
9661;SDS011;24982;52.344;12.990;2022-08-03T06:54:53;3.90;;;2.00;;
9661;SDS011;24982;52.344;12.990;2022-08-03T06:57:55;2.00;;;1.90;;
9661;SDS011;24982;52.344;12.990;2022-08-03T07:00:57;8.30;;;2.08;;
9661;SDS011;24982;52.344;12.990;2022-08-03T07:04:00;1.92;;;1.80;;
9661;SDS011;24982;52.344;12.990;2022-08-03T07:07:03;2.28;;;2.00;;
9661;SDS011;24982;52.344;12.990;2022-08-03T07:10:06;2.83;;;2.03;;
9661;SDS011;24982;52.344;12.990;2022-08-03T07:13:08;3.13;;;2.33;;
9661;SDS011;24982;52.344;12.990;2022-08-03T07:16:10;2.70;;;1.90;;
9661;SDS011;24982;52.344;12.990;2022-08-03T07:19:12;2.03;;;1.85;;
9661;SDS011;24982;52.344;12.990;2022-08-03T07:22:16;2.65;;;2.08;;
9661;SDS011;24982;52.344;12.990;2022-08-03T07:25:18;2.50;;;2.03;;
9661;SDS011;24982;52.344;12.990;2022-08-03T07:28:20;2.47;;;2.00;;
9661;SDS011;24982;52.344;12.990;2022-08-03T07:31:22;2.08;;;1.90;;
9661;SDS011;24982;52.344;12.990;2022-08-03T07:34:24;2.03;;;1.83;;
9661;SDS011;24982;52.344;12.990;2022-08-03T07:37:27;4.68;;;1.90;;
9661;SDS011;24982;52.344;12.990;2022-08-03T07:40:30;2.00;;;1.90;;
9661;SDS011;24982;52.344;12.990;2022-08-03T07:43:32;2.85;;;1.85;;
9661;SDS011;24982;52.344;12.990;2022-08-03T07:46:34;2.20;;;1.63;;
9661;SDS011;24982;52.344;12.990;2022-08-03T07:49:40;2.53;;;1.90;;
9661;SDS011;24982;52.344;12.990;2022-08-03T07:52:44;2.05;;;1.80;;
9661;SDS011;24982;52.344;12.990;2022-08-03T07:55:49;5.70;;;1.85;;
9661;SDS011;24982;52.344;12.990;2022-08-03T07:58:51;2.40;;;2.03;;
9661;SDS011;24982;52.344;12.990;2022-08-03T08:01:53;2.15;;;1.92;;
9661;SDS011;24982;52.344;12.990;2022-08-03T08:04:55;2.28;;;2.03;;
9661;SDS011;24982;52.344;12.990;2022-08-03T08:07:59;2.47;;;1.90;;
9661;SDS011;24982;52.344;12.990;2022-08-03T08:11:01;2.28;;;2.08;;
9661;SDS011;24982;52.344;12.990;2022-08-03T08:14:03;2.00;;;1.90;;
9661;SDS011;24982;52.344;12.990;2022-08-03T08:17:06;1.80;;;1.75;;
9661;SDS011;24982;52.344;12.990;2022-08-03T08:20:09;2.00;;;1.90;;
9661;SDS011;24982;52.344;12.990;2022-08-03T08:23:13;1.90;;;1.80;;
9661;SDS011;24982;52.344;12.990;2022-08-03T08:26:16;1.73;;;1.63;;
9661;SDS011;24982;52.344;12.990;2022-08-03T08:29:18;3.88;;;1.85;;
9661;SDS011;24982;52.344;12.990;2022-08-03T08:32:22;2.60;;;1.67;;
9661;SDS011;24982;52.344;12.990;2022-08-03T08:35:24;1.90;;;1.80;;
9661;SDS011;24982;52.344;12.990;2022-08-03T08:38:27;2.08;;;1.90;;
9661;SDS011;24982;52.344;12.990;2022-08-03T08:41:30;2.42;;;1.75;;
9661;SDS011;24982;52.344;12.990;2022-08-03T08:44:33;2.20;;;2.00;;
9661;SDS011;24982;52.344;12.990;2022-08-03T08:47:36;2.40;;;1.90;;
9661;SDS011;24982;52.344;12.990;2022-08-03T08:50:39;1.90;;;1.63;;
9661;SDS011;24982;52.344;12.990;2022-08-03T08:53:43;1.92;;;1.83;;
9661;SDS011;24982;52.344;12.990;2022-08-03T08:56:48;1.90;;;1.90;;
9661;SDS011;24982;52.344;12.990;2022-08-03T08:59:51;1.90;;;1.80;;
9661;SDS011;24982;52.344;12.990;2022-08-03T09:02:56;4.55;;;2.00;;
9661;SDS011;24982;52.344;12.990;2022-08-03T09:05:58;3.53;;;1.90;;
9661;SDS011;24982;52.344;12.990;2022-08-03T09:09:02;2.28;;;1.88;;
9661;SDS011;24982;52.344;12.990;2022-08-03T09:12:07;2.70;;;2.00;;
9661;SDS011;24982;52.344;12.990;2022-08-03T09:15:16;4.35;;;2.00;;
9661;SDS011;24982;52.344;12.990;2022-08-03T09:18:27;3.47;;;2.03;;
9661;SDS011;24982;52.344;12.990;2022-08-03T09:21:29;1.75;;;1.75;;
9661;SDS011;24982;52.344;12.990;2022-08-03T09:24:33;4.05;;;1.92;;
9661;SDS011;24982;52.344;12.990;2022-08-03T09:27:40;3.20;;;2.00;;
9661;SDS011;24982;52.344;12.990;2022-08-03T09:30:44;2.90;;;1.80;;
9661;SDS011;24982;52.344;12.990;2022-08-03T09:33:59;2.83;;;1.95;;
9661;SDS011;24982;52.344;12.990;2022-08-03T09:37:02;2.15;;;1.90;;
9661;SDS011;24982;52.344;12.990;2022-08-03T09:40:16;1.92;;;1.83;;
9661;SDS011;24982;52.344;12.990;2022-08-03T09:43:41;2.00;;;1.88;;
9661;SDS011;24982;52.344;12.990;2022-08-03T09:46:47;2.00;;;1.90;;
9661;SDS011;24982;52.344;12.990;2022-08-03T09:49:55;4.25;;;1.80;;
9661;SDS011;24982;52.344;12.990;2022-08-03T09:52:58;3.05;;;2.13;;
9661;SDS011;24982;52.344;12.990;2022-08-03T09:56:04;3.38;;;1.85;;
9661;SDS011;24982;52.344;12.990;2022-08-03T09:59:06;3.88;;;1.88;;
9661;SDS011;24982;52.344;12.990;2022-08-03T10:02:17;2.35;;;2.00;;
9661;SDS011;24982;52.344;12.990;2022-08-03T10:05:31;2.00;;;1.85;;
9661;SDS011;24982;52.344;12.990;2022-08-03T10:08:33;2.10;;;2.00;;
9661;SDS011;24982;52.344;12.990;2022-08-03T10:11:37;4.88;;;2.00;;
9661;SDS011;24982;52.344;12.990;2022-08-03T10:14:40;5.93;;;1.90;;
9661;SDS011;24982;52.344;12.990;2022-08-03T10:17:44;2.10;;;2.00;;
9661;SDS011;24982;52.344;12.990;2022-08-03T10:20:48;5.53;;;2.00;;
9661;SDS011;24982;52.344;12.990;2022-08-03T10:23:52;2.10;;;1.90;;
9661;SDS011;24982;52.344;12.990;2022-08-03T10:27:00;1.92;;;1.75;;
9661;SDS011;24982;52.344;12.990;2022-08-03T10:30:04;2.10;;;1.80;;
9661;SDS011;24982;52.344;12.990;2022-08-03T10:33:09;2.13;;;1.95;;
9661;SDS011;24982;52.344;12.990;2022-08-03T10:36:17;2.28;;;1.90;;
9661;SDS011;24982;52.344;12.990;2022-08-03T10:39:22;1.95;;;1.90;;
9661;SDS011;24982;52.344;12.990;2022-08-03T10:42:27;2.20;;;2.00;;
9661;SDS011;24982;52.344;12.990;2022-08-03T10:45:31;4.55;;;2.20;;
9661;SDS011;24982;52.344;12.990;2022-08-03T10:48:35;1.90;;;1.90;;
9661;SDS011;24982;52.344;12.990;2022-08-03T10:51:38;2.20;;;2.03;;
9661;SDS011;24982;52.344;12.990;2022-08-03T10:54:42;2.85;;;2.10;;
9661;SDS011;24982;52.344;12.990;2022-08-03T10:58:03;3.20;;;2.40;;
9661;SDS011;24982;52.344;12.990;2022-08-03T11:01:06;2.10;;;2.00;;
9661;SDS011;24982;52.344;12.990;2022-08-03T11:04:13;2.47;;;2.20;;
9661;SDS011;24982;52.344;12.990;2022-08-03T11:07:18;3.47;;;2.30;;
9661;SDS011;24982;52.344;12.990;2022-08-03T11:10:28;2.40;;;2.30;;
9661;SDS011;24982;52.344;12.990;2022-08-03T11:13:33;2.10;;;1.90;;
9661;SDS011;24982;52.344;12.990;2022-08-03T11:16:35;3.67;;;2.13;;
9661;SDS011;24982;52.344;12.990;2022-08-03T11:19:42;2.38;;;2.00;;
9661;SDS011;24982;52.344;12.990;2022-08-03T11:22:48;2.60;;;2.40;;
9661;SDS011;24982;52.344;12.990;2022-08-03T11:26:07;2.42;;;2.33;;
9661;SDS011;24982;52.344;12.990;2022-08-03T11:29:27;2.17;;;2.05;;
9661;SDS011;24982;52.344;12.990;2022-08-03T11:35:57;2.55;;;2.35;;
9661;SDS011;24982;52.344;12.990;2022-08-03T11:45:48;2.50;;;2.50;;
9661;SDS011;24982;52.344;12.990;2022-08-03T11:49:02;2.47;;;2.33;;
9661;SDS011;24982;52.344;12.990;2022-08-03T11:52:06;2.33;;;2.30;;
9661;SDS011;24982;52.344;12.990;2022-08-03T11:55:12;4.38;;;2.50;;
9661;SDS011;24982;52.344;12.990;2022-08-03T11:58:17;2.70;;;2.50;;
9661;SDS011;24982;52.344;12.990;2022-08-03T12:01:21;3.28;;;2.53;;
9661;SDS011;24982;52.344;12.990;2022-08-03T12:04:24;2.50;;;2.40;;
9661;SDS011;24982;52.344;12.990;2022-08-03T12:07:26;2.50;;;2.40;;
9661;SDS011;24982;52.344;12.990;2022-08-03T12:10:29;2.30;;;2.30;;
9661;SDS011;24982;52.344;12.990;2022-08-03T12:13:36;2.75;;;2.55;;
9661;SDS011;24982;52.344;12.990;2022-08-03T12:16:41;3.03;;;2.83;;
9661;SDS011;24982;52.344;12.990;2022-08-03T12:19:48;3.95;;;2.80;;
9661;SDS011;24982;52.344;12.990;2022-08-03T12:22:50;2.58;;;2.50;;
9661;SDS011;24982;52.344;12.990;2022-08-03T12:25:53;2.85;;;2.75;;
9661;SDS011;24982;52.344;12.990;2022-08-03T12:29:02;3.25;;;2.95;;
9661;SDS011;24982;52.344;12.990;2022-08-03T12:32:05;2.65;;;2.55;;
9661;SDS011;24982;52.344;12.990;2022-08-03T12:35:08;2.88;;;2.70;;
9661;SDS011;24982;52.344;12.990;2022-08-03T12:38:10;3.00;;;2.70;;
9661;SDS011;24982;52.344;12.990;2022-08-03T12:41:12;2.72;;;2.60;;
9661;SDS011;24982;52.344;12.990;2022-08-03T12:44:15;2.50;;;2.40;;
9661;SDS011;24982;52.344;12.990;2022-08-03T12:47:19;3.03;;;2.83;;
9661;SDS011;24982;52.344;12.990;2022-08-03T12:50:28;2.97;;;2.60;;
9661;SDS011;24982;52.344;12.990;2022-08-03T12:53:30;2.80;;;2.65;;
9661;SDS011;24982;52.344;12.990;2022-08-03T12:56:33;3.42;;;2.17;;
9661;SDS011;24982;52.344;12.990;2022-08-03T12:59:35;3.22;;;2.47;;
9661;SDS011;24982;52.344;12.990;2022-08-03T13:02:43;2.20;;;2.10;;
9661;SDS011;24982;52.344;12.990;2022-08-03T13:05:45;2.53;;;2.42;;
9661;SDS011;24982;52.344;12.990;2022-08-03T13:08:47;2.30;;;2.15;;
9661;SDS011;24982;52.344;12.990;2022-08-03T13:12:03;3.58;;;2.17;;
9661;SDS011;24982;52.344;12.990;2022-08-03T13:15:06;2.28;;;2.08;;
9661;SDS011;24982;52.344;12.990;2022-08-03T13:18:10;2.75;;;2.17;;
9661;SDS011;24982;52.344;12.990;2022-08-03T13:21:12;2.42;;;2.20;;
9661;SDS011;24982;52.344;12.990;2022-08-03T13:24:14;3.90;;;3.60;;
9661;SDS011;24982;52.344;12.990;2022-08-03T13:27:17;3.63;;;2.63;;
9661;SDS011;24982;52.344;12.990;2022-08-03T13:30:19;2.78;;;2.00;;
9661;SDS011;24982;52.344;12.990;2022-08-03T13:33:22;2.10;;;2.00;;
9661;SDS011;24982;52.344;12.990;2022-08-03T13:36:24;2.20;;;1.95;;
9661;SDS011;24982;52.344;12.990;2022-08-03T13:39:26;4.20;;;2.10;;
9661;SDS011;24982;52.344;12.990;2022-08-03T13:42:29;2.10;;;1.90;;
9661;SDS011;24982;52.344;12.990;2022-08-03T13:45:32;1.92;;;1.92;;
9661;SDS011;24982;52.344;12.990;2022-08-03T13:48:35;2.20;;;2.10;;
9661;SDS011;24982;52.344;12.990;2022-08-03T13:51:37;2.00;;;1.90;;
9661;SDS011;24982;52.344;12.990;2022-08-03T13:54:40;2.05;;;1.95;;
9661;SDS011;24982;52.344;12.990;2022-08-03T13:57:42;2.10;;;2.00;;
9661;SDS011;24982;52.344;12.990;2022-08-03T14:00:44;5.18;;;2.30;;
9661;SDS011;24982;52.344;12.990;2022-08-03T14:03:47;1.83;;;1.80;;
9661;SDS011;24982;52.344;12.990;2022-08-03T14:06:53;3.85;;;2.17;;
9661;SDS011;24982;52.344;12.990;2022-08-03T14:09:55;2.75;;;1.90;;
9661;SDS011;24982;52.344;12.990;2022-08-03T14:12:57;4.00;;;2.58;;
9661;SDS011;24982;52.344;12.990;2022-08-03T14:15:59;4.70;;;2.22;;
9661;SDS011;24982;52.344;12.990;2022-08-03T14:19:03;1.90;;;1.80;;
9661;SDS011;24982;52.344;12.990;2022-08-03T14:22:05;2.03;;;1.90;;
9661;SDS011;24982;52.344;12.990;2022-08-03T14:25:07;1.98;;;1.80;;
9661;SDS011;24982;52.344;12.990;2022-08-03T14:28:09;2.20;;;2.08;;
9661;SDS011;24982;52.344;12.990;2022-08-03T14:31:12;1.98;;;1.88;;
9661;SDS011;24982;52.344;12.990;2022-08-03T14:34:15;3.45;;;1.90;;
9661;SDS011;24982;52.344;12.990;2022-08-03T14:37:17;2.00;;;1.90;;
9661;SDS011;24982;52.344;12.990;2022-08-03T14:40:20;2.08;;;1.98;;
9661;SDS011;24982;52.344;12.990;2022-08-03T14:43:22;2.85;;;1.95;;
9661;SDS011;24982;52.344;12.990;2022-08-03T14:46:24;2.15;;;2.00;;
9661;SDS011;24982;52.344;12.990;2022-08-03T14:49:27;2.38;;;2.00;;
9661;SDS011;24982;52.344;12.990;2022-08-03T14:52:30;2.30;;;2.10;;
9661;SDS011;24982;52.344;12.990;2022-08-03T14:55:32;2.50;;;2.03;;
9661;SDS011;24982;52.344;12.990;2022-08-03T14:58:34;5.35;;;2.88;;
9661;SDS011;24982;52.344;12.990;2022-08-03T15:01:36;2.45;;;2.38;;
9661;SDS011;24982;52.344;12.990;2022-08-03T15:04:40;1.80;;;1.70;;
9661;SDS011;24982;52.344;12.990;2022-08-03T15:07:42;2.72;;;1.70;;
9661;SDS011;24982;52.344;12.990;2022-08-03T15:10:44;3.78;;;2.10;;
9661;SDS011;24982;52.344;12.990;2022-08-03T15:13:46;2.92;;;1.90;;
9661;SDS011;24982;52.344;12.990;2022-08-03T15:16:48;3.33;;;2.30;;
9661;SDS011;24982;52.344;12.990;2022-08-03T15:19:51;2.00;;;1.90;;
9661;SDS011;24982;52.344;12.990;2022-08-03T15:22:53;3.03;;;1.90;;
9661;SDS011;24982;52.344;12.990;2022-08-03T15:25:55;1.67;;;1.67;;
9661;SDS011;24982;52.344;12.990;2022-08-03T15:28:57;2.80;;;1.90;;
9661;SDS011;24982;52.344;12.990;2022-08-03T15:31:59;2.47;;;1.90;;
9661;SDS011;24982;52.344;12.990;2022-08-03T15:35:03;1.90;;;1.70;;
9661;SDS011;24982;52.344;12.990;2022-08-03T15:38:05;4.28;;;2.13;;
9661;SDS011;24982;52.344;12.990;2022-08-03T15:41:07;1.92;;;1.83;;
9661;SDS011;24982;52.344;12.990;2022-08-03T15:44:09;2.45;;;1.92;;
9661;SDS011;24982;52.344;12.990;2022-08-03T15:47:11;2.13;;;1.83;;
9661;SDS011;24982;52.344;12.990;2022-08-03T15:50:15;3.08;;;2.00;;
9661;SDS011;24982;52.344;12.990;2022-08-03T15:53:17;3.22;;;1.98;;
9661;SDS011;24982;52.344;12.990;2022-08-03T15:56:19;1.80;;;1.70;;
9661;SDS011;24982;52.344;12.990;2022-08-03T15:59:21;3.22;;;1.77;;
9661;SDS011;24982;52.344;12.990;2022-08-03T16:02:23;1.90;;;1.80;;
9661;SDS011;24982;52.344;12.990;2022-08-03T16:05:27;6.63;;;1.80;;
9661;SDS011;24982;52.344;12.990;2022-08-03T16:08:29;3.47;;;1.73;;
9661;SDS011;24982;52.344;12.990;2022-08-03T16:11:32;3.65;;;1.90;;
9661;SDS011;24982;52.344;12.990;2022-08-03T16:14:34;1.92;;;1.73;;
9661;SDS011;24982;52.344;12.990;2022-08-03T16:17:36;1.80;;;1.70;;
9661;SDS011;24982;52.344;12.990;2022-08-03T16:20:40;1.88;;;1.75;;
9661;SDS011;24982;52.344;12.990;2022-08-03T16:23:42;1.98;;;1.88;;
9661;SDS011;24982;52.344;12.990;2022-08-03T16:26:44;1.88;;;1.77;;
9661;SDS011;24982;52.344;12.990;2022-08-03T16:29:47;1.80;;;1.70;;
9661;SDS011;24982;52.344;12.990;2022-08-03T16:32:49;1.65;;;1.55;;
9661;SDS011;24982;52.344;12.990;2022-08-03T16:35:52;3.63;;;2.20;;
9661;SDS011;24982;52.344;12.990;2022-08-03T16:38:55;2.50;;;2.30;;
9661;SDS011;24982;52.344;12.990;2022-08-03T16:41:57;3.47;;;2.42;;
9661;SDS011;24982;52.344;12.990;2022-08-03T16:45:00;4.72;;;2.40;;
9661;SDS011;24982;52.344;12.990;2022-08-03T16:48:02;1.60;;;1.60;;
9661;SDS011;24982;52.344;12.990;2022-08-03T16:51:06;3.95;;;2.08;;
9661;SDS011;24982;52.344;12.990;2022-08-03T16:54:08;1.48;;;1.40;;
9661;SDS011;24982;52.344;12.990;2022-08-03T16:57:11;2.00;;;1.90;;
9661;SDS011;24982;52.344;12.990;2022-08-03T17:00:13;3.22;;;1.70;;
9661;SDS011;24982;52.344;12.990;2022-08-03T17:03:15;1.92;;;1.80;;
9661;SDS011;24982;52.344;12.990;2022-08-03T17:06:22;1.77;;;1.70;;
9661;SDS011;24982;52.344;12.990;2022-08-03T17:09:25;2.90;;;1.70;;
9661;SDS011;24982;52.344;12.990;2022-08-03T17:12:30;2.05;;;1.73;;
9661;SDS011;24982;52.344;12.990;2022-08-03T17:15:32;3.92;;;1.95;;
9661;SDS011;24982;52.344;12.990;2022-08-03T17:18:36;1.95;;;1.55;;
9661;SDS011;24982;52.344;12.990;2022-08-03T17:21:44;1.58;;;1.55;;
9661;SDS011;24982;52.344;12.990;2022-08-03T17:24:49;1.88;;;1.75;;
9661;SDS011;24982;52.344;12.990;2022-08-03T17:27:53;1.58;;;1.58;;
9661;SDS011;24982;52.344;12.990;2022-08-03T17:30:56;2.50;;;1.67;;
9661;SDS011;24982;52.344;12.990;2022-08-03T17:34:17;2.03;;;1.52;;
9661;SDS011;24982;52.344;12.990;2022-08-03T17:37:21;1.90;;;1.55;;
9661;SDS011;24982;52.344;12.990;2022-08-03T17:40:24;1.70;;;1.70;;
9661;SDS011;24982;52.344;12.990;2022-08-03T17:43:26;1.50;;;1.50;;
9661;SDS011;24982;52.344;12.990;2022-08-03T17:46:28;3.45;;;1.77;;
9661;SDS011;24982;52.344;12.990;2022-08-03T17:49:30;1.50;;;1.50;;
9661;SDS011;24982;52.344;12.990;2022-08-03T17:52:34;1.60;;;1.50;;
9661;SDS011;24982;52.344;12.990;2022-08-03T17:55:45;1.85;;;1.60;;
9661;SDS011;24982;52.344;12.990;2022-08-03T17:59:00;2.25;;;1.83;;
9661;SDS011;24982;52.344;12.990;2022-08-03T18:02:15;1.70;;;1.60;;
9661;SDS011;24982;52.344;12.990;2022-08-03T18:05:47;1.50;;;1.50;;
9661;SDS011;24982;52.344;12.990;2022-08-03T18:08:53;1.92;;;1.83;;
9661;SDS011;24982;52.344;12.990;2022-08-03T18:11:56;3.60;;;1.50;;
9661;SDS011;24982;52.344;12.990;2022-08-03T18:15:02;3.58;;;1.65;;
9661;SDS011;24982;52.344;12.990;2022-08-03T18:18:05;2.00;;;1.55;;
9661;SDS011;24982;52.344;12.990;2022-08-03T18:21:08;1.75;;;1.65;;
9661;SDS011;24982;52.344;12.990;2022-08-03T18:24:13;1.67;;;1.67;;
9661;SDS011;24982;52.344;12.990;2022-08-03T18:27:17;2.08;;;1.65;;
9661;SDS011;24982;52.344;12.990;2022-08-03T18:30:20;1.73;;;1.63;;
9661;SDS011;24982;52.344;12.990;2022-08-03T18:33:23;1.90;;;1.80;;
9661;SDS011;24982;52.344;12.990;2022-08-03T18:36:26;1.98;;;1.80;;
9661;SDS011;24982;52.344;12.990;2022-08-03T18:39:30;1.80;;;1.70;;